Time;durP1;ratioP1;P1;durP2;ratioP2;P2;SDS_P1;SDS_P2;PMS_P1;PMS_P2;Temp;Humidity;BMP_temperature;BMP_pressure;BME280_temperature;BME280_humidity;BME280_pressure;Samples;Min_cycle;Max_cycle;Signal;HPM_P1;HPM_P2
2021/08/26 00:07:55;;;;;;;6.75;4.18;;;15.50;69.90;;;15.34;55.29;94595.44;5038703;28;20668;-80
2021/08/26 00:10:24;;;;;;;6.47;4.03;;;15.50;69.90;;;15.37;55.68;94597.63;5036172;28;20277;-80
2021/08/26 00:12:52;;;;;;;6.63;4.47;;;15.60;70.00;;;15.36;55.82;94582.81;5031462;28;20189;-81
2021/08/26 00:15:20;;;;;;;8.18;4.70;;;15.60;70.10;;;15.39;55.55;94590.25;5025756;28;20219;-80
2021/08/26 00:17:48;;;;;;;7.25;4.03;;;15.60;70.00;;;15.43;55.27;94588.78;5036105;28;20249;-80
2021/08/26 00:20:15;;;;;;;7.35;4.47;;;15.60;70.00;;;15.45;55.57;94583.25;5035818;28;20322;-80
2021/08/26 00:22:42;;;;;;;7.20;4.38;;;15.70;70.10;;;15.44;55.61;94579.00;5048965;28;20661;-81
2021/08/26 00:25:10;;;;;;;7.05;4.70;;;15.70;70.10;;;15.47;55.48;94574.06;5035739;28;20239;-80
2021/08/26 00:27:37;;;;;;;6.55;4.55;;;15.60;70.10;;;15.47;55.54;94576.72;5035707;28;20282;-81
2021/08/26 00:30:04;;;;;;;5.88;4.07;;;15.70;70.10;;;15.47;55.48;94568.78;5048394;28;20776;-80
2021/08/26 00:32:33;;;;;;;6.38;4.40;;;15.60;70.00;;;15.48;55.64;94575.69;5019898;28;20257;-80
2021/08/26 00:35:01;;;;;;;7.15;4.60;;;15.70;70.00;;;15.48;55.85;94575.69;5034965;28;20225;-80
2021/08/26 00:37:28;;;;;;;6.68;4.43;;;15.70;70.10;;;15.50;55.87;94570.97;5052207;28;20253;-80
2021/08/26 00:39:56;;;;;;;6.28;4.20;;;15.70;70.10;;;15.50;55.76;94570.97;5034335;28;20251;-80
2021/08/26 00:42:24;;;;;;;6.60;4.35;;;15.70;70.10;;;15.50;55.91;94575.44;5028906;28;20192;-81
2021/08/26 00:44:52;;;;;;;7.00;4.32;;;15.70;70.10;;;15.50;55.94;94573.63;5034510;28;20290;-79
2021/08/26 00:47:26;;;;;;;6.68;4.22;;;15.70;70.20;;;15.51;55.94;94561.19;5007430;28;20282;-80
2021/08/26 00:49:54;;;;;;;7.80;5.15;;;15.70;70.20;;;15.52;56.16;94568.09;5015412;28;20303;-78
2021/08/26 00:52:24;;;;;;;7.60;4.88;;;15.70;70.30;;;15.53;55.91;94559.13;5032017;28;20206;-80
2021/08/26 00:54:53;;;;;;;7.78;4.25;;;15.70;70.40;;;15.56;55.78;94560.50;5041223;28;20203;-79
2021/08/26 00:57:24;;;;;;;6.70;4.50;;;15.70;70.20;;;15.57;56.06;94556.84;5018514;28;20192;-81
2021/08/26 00:59:55;;;;;;;6.80;4.40;;;15.80;70.40;;;15.58;56.04;94550.50;5035306;28;20258;-80
2021/08/26 01:03:14;;;;;;;6.75;4.22;;;15.80;70.30;;;15.58;55.58;94551.31;5051782;28;20314;-80
2021/08/26 01:05:56;;;;;;;6.28;3.95;;;15.80;70.10;;;15.60;56.04;94548.44;5033041;28;20231;-80
2021/08/26 01:09:02;;;;;;;7.13;4.63;;;15.80;70.20;;;15.61;55.80;94550.03;5031821;28;20226;-79
2021/08/26 01:11:35;;;;;;;5.72;4.07;;;15.80;70.40;;;15.61;55.88;94553.50;5014626;28;20642;-80
2021/08/26 01:14:04;;;;;;;6.55;4.53;;;15.80;70.40;;;15.59;55.86;94542.34;5014939;28;20224;-80
2021/08/26 01:16:39;;;;;;;5.80;4.10;;;15.80;70.30;;;15.61;56.04;94535.00;5031941;28;20219;-80
2021/08/26 01:19:06;;;;;;;5.80;4.20;;;15.90;70.30;;;15.65;55.81;94546.69;5015624;28;20564;-80
2021/08/26 01:21:34;;;;;;;7.55;4.43;;;15.90;70.40;;;15.66;55.71;94532.44;5015570;28;20307;-79
2021/08/26 01:24:08;;;;;;;7.20;4.20;;;15.90;70.30;;;15.70;55.75;94543.38;5018979;28;20460;-80
2021/08/26 01:26:42;;;;;;;6.95;4.60;;;15.80;70.30;;;15.68;55.59;94534.84;5015334;28;20270;-80
2021/08/26 01:29:11;;;;;;;5.78;3.67;;;15.90;70.20;;;15.69;55.81;94534.63;5031434;28;20264;-80
2021/08/26 01:31:40;;;;;;;5.97;3.97;;;15.90;70.30;;;15.73;55.64;94537.59;5031357;28;20682;-80
2021/08/26 01:34:08;;;;;;;6.35;3.83;;;15.90;70.30;;;15.75;55.40;94532.09;5034802;28;20677;-81
2021/08/26 01:36:36;;;;;;;5.07;3.65;;;15.90;70.20;;;15.74;55.43;94525.19;5042392;28;20749;-81
2021/08/26 01:39:09;;;;;;;5.38;4.20;;;15.90;70.10;;;15.73;55.61;94534.94;5044350;28;20614;-81
2021/08/26 01:41:49;;;;;;;6.22;3.80;;;15.90;70.10;;;15.74;55.23;94528.63;5033982;28;20667;-81
2021/08/26 01:44:28;;;;;;;5.82;4.25;;;15.90;70.30;;;15.73;55.30;94529.66;5047056;28;20271;-81
2021/08/26 01:47:09;;;;;;;7.13;4.00;;;15.90;70.10;;;15.71;55.47;94526.47;4998337;28;20223;-80
2021/08/26 01:49:37;;;;;;;6.05;4.28;;;15.90;70.00;;;15.73;55.54;94528.88;5014839;28;20215;-81
2021/08/26 01:52:05;;;;;;;5.72;4.00;;;15.90;70.00;;;15.71;55.13;94523.84;5015060;28;20291;-81
2021/08/26 01:54:34;;;;;;;5.43;3.90;;;15.90;70.00;;;15.71;55.22;94518.53;5017308;28;20274;-81
2021/08/26 01:57:03;;;;;;;7.05;4.32;;;15.90;70.10;;;15.71;55.53;94510.59;4998558;28;20253;-81
2021/08/26 01:59:33;;;;;;;5.53;3.60;;;15.90;70.00;;;15.68;55.31;94514.53;5031010;28;20729;-80
2021/08/26 02:02:00;;;;;;;6.72;4.47;;;15.90;69.90;;;15.64;55.72;94497.50;5031738;28;20200;-81
2021/08/26 02:04:27;;;;;;;5.65;4.13;;;15.90;69.90;;;15.66;55.31;94499.91;5060561;28;20279;-81
2021/08/26 02:06:54;;;;;;;5.85;4.00;;;15.90;69.90;;;15.65;54.88;94503.63;5033284;28;20677;-81
2021/08/26 02:09:21;;;;;;;9.18;4.13;;;15.90;69.90;;;15.68;55.53;94509.25;5050931;28;20274;-81
2021/08/26 02:11:48;;;;;;;5.70;3.95;;;15.90;69.90;;;15.69;54.99;94502.88;5051208;28;20215;-80
2021/08/26 02:14:15;;;;;;;5.80;4.15;;;15.90;69.90;;;15.67;55.34;94504.97;5045079;28;20710;-80
2021/08/26 02:16:43;;;;;;;5.72;4.13;;;15.90;69.80;;;15.67;54.87;94498.88;5014699;28;20220;-80
2021/08/26 02:19:10;;;;;;;6.85;4.03;;;15.90;70.00;;;15.65;55.18;94500.97;5031065;28;20646;-80
2021/08/26 02:21:37;;;;;;;7.43;4.55;;;15.90;70.00;;;15.61;55.19;94490.06;5014838;28;20227;-80
2021/08/26 02:24:05;;;;;;;5.93;4.13;;;15.90;69.90;;;15.61;55.19;94492.69;5030449;28;20211;-81
2021/08/26 02:26:33;;;;;;;6.50;3.80;;;15.80;69.80;;;15.58;55.15;94479.16;5015380;28;20231;-81
2021/08/26 02:29:00;;;;;;;6.72;4.28;;;15.80;69.80;;;15.55;55.07;94480.41;5014629;28;20675;-81
2021/08/26 02:31:28;;;;;;;5.80;4.05;;;15.80;69.80;;;15.53;55.41;94470.06;4998277;28;20216;-81
2021/08/26 02:33:56;;;;;;;5.32;3.65;;;15.80;69.80;;;15.51;55.32;94476.63;5019354;28;20614;-80
2021/08/26 02:36:23;;;;;;;6.10;3.90;;;15.80;69.90;;;15.48;55.10;94471.81;5015726;28;20219;-80
2021/08/26 02:38:50;;;;;;;5.03;3.97;;;15.80;70.00;;;15.47;55.16;94478.91;5017990;28;20200;-81
2021/08/26 02:41:18;;;;;;;5.50;3.58;;;15.80;70.10;;;15.46;55.25;94469.38;5024105;28;20599;-80
2021/08/26 02:43:45;;;;;;;4.97;3.60;;;15.60;69.90;;;15.44;55.17;94460.91;5035091;28;20194;-78
2021/08/26 02:46:12;;;;;;;5.47;3.88;;;15.70;70.00;;;15.45;55.28;94461.69;5038411;28;20479;-80
2021/08/26 02:48:39;;;;;;;6.47;4.15;;;15.70;70.10;;;15.44;55.35;94458.25;5054205;28;20584;-81
2021/08/26 02:51:07;;;;;;;6.35;3.70;;;15.60;70.00;;;15.46;55.25;94453.53;5054376;28;20234;-81
2021/08/26 02:53:34;;;;;;;6.43;4.20;;;15.70;70.10;;;15.46;55.47;94450.09;5017689;28;20214;-81
2021/08/26 02:56:01;;;;;;;5.93;4.18;;;15.60;70.10;;;15.48;55.25;94451.47;5033935;28;20243;-80
2021/08/26 02:58:28;;;;;;;6.55;4.30;;;15.70;70.10;;;15.49;55.55;94450.44;5017665;28;20295;-81
2021/08/26 03:00:56;;;;;;;5.30;3.90;;;15.70;70.30;;;15.50;55.51;94436.19;5017694;28;20236;-80
2021/08/26 03:03:23;;;;;;;6.03;4.03;;;15.60;70.10;;;15.53;55.63;94437.53;5046999;28;20195;-80
2021/08/26 03:05:50;;;;;;;5.40;3.88;;;15.60;70.10;;;15.55;55.39;94427.56;5036796;28;20689;-79
2021/08/26 03:08:18;;;;;;;5.13;3.40;;;15.70;70.20;;;15.57;55.36;94433.38;5037497;28;20653;-81
2021/08/26 03:10:45;;;;;;;6.60;4.43;;;15.60;70.20;;;15.59;55.41;94438.47;5040067;28;20715;-80
2021/08/26 03:13:12;;;;;;;5.95;3.78;;;15.70;71.10;;;15.60;55.55;94422.34;5033818;28;20769;-80
2021/08/26 03:15:39;;;;;;;7.18;4.13;;;15.70;70.20;;;15.64;55.27;94433.25;5024350;28;20690;-80
2021/08/26 03:18:07;;;;;;;5.38;3.75;;;15.70;70.20;;;15.65;55.21;94421.66;5035042;28;20231;-81
2021/08/26 03:20:34;;;;;;;6.53;3.83;;;15.70;70.30;;;15.64;55.53;94418.19;5000990;28;20219;-80
2021/08/26 03:23:01;;;;;;;7.78;3.92;;;15.80;70.40;;;15.64;55.30;94420.84;5033766;28;20749;-81
2021/08/26 03:25:29;;;;;;;6.45;3.92;;;15.80;70.20;;;15.65;55.41;94416.38;5028395;28;20212;-81
2021/08/26 03:27:56;;;;;;;5.30;3.80;;;15.80;70.30;;;15.65;55.26;94417.16;5009421;28;20297;-81
2021/08/26 03:30:24;;;;;;;7.95;4.28;;;15.90;70.40;;;15.65;55.69;94417.16;5053434;28;20615;-81
2021/08/26 03:32:51;;;;;;;4.68;3.65;;;15.80;70.20;;;15.68;55.59;94418.53;5049409;28;20673;-81
2021/08/26 03:35:18;;;;;;;6.05;3.97;;;15.80;70.30;;;15.68;55.24;94413.25;5034765;28;20208;-81
2021/08/26 03:37:45;;;;;;;5.75;3.85;;;15.80;70.20;;;15.68;55.35;94416.69;5017000;28;20200;-81
2021/08/26 03:40:12;;;;;;;6.85;4.28;;;15.80;70.20;;;15.65;55.65;94403.94;5033138;28;20234;-79
2021/08/26 03:42:39;;;;;;;8.63;3.92;;;15.80;70.20;;;15.69;55.61;94410.34;5033790;28;20192;-80
2021/08/26 03:45:07;;;;;;;6.32;3.78;;;15.80;70.30;;;15.73;55.60;94407.25;5036593;28;20223;-81
2021/08/26 03:47:34;;;;;;;7.15;3.95;;;15.80;70.30;;;15.73;55.29;94408.03;5036536;28;20218;-81
2021/08/26 03:50:02;;;;;;;5.90;4.28;;;15.80;70.20;;;15.70;55.65;94408.53;5036476;28;20238;-81
2021/08/26 03:52:29;;;;;;;6.47;3.92;;;15.90;70.40;;;15.72;55.42;94411.75;5036493;28;20442;-81
2021/08/26 03:54:56;;;;;;;6.43;4.07;;;15.90;70.40;;;15.73;55.40;94405.41;5031962;28;20311;-81
2021/08/26 03:57:24;;;;;;;7.15;4.00;;;15.90;70.50;;;15.74;55.48;94406.22;5016494;28;20635;-81
2021/08/26 03:59:51;;;;;;;6.38;4.35;;;15.90;70.40;;;15.74;55.64;94400.94;5052519;28;20195;-80
2021/08/26 04:02:18;;;;;;;6.20;4.32;;;15.90;70.60;;;15.68;55.98;94394.72;5042592;28;20351;-82
2021/08/26 04:04:45;;;;;;;5.72;3.88;;;16.00;70.60;;;15.69;55.70;94397.13;5030111;28;20205;-81
2021/08/26 04:07:15;;;;;;;6.30;4.22;;;15.90;70.50;;;15.67;55.52;94396.59;5014645;28;20681;-80
2021/08/26 04:09:42;;;;;;;10.18;4.15;;;15.90;70.60;;;15.65;55.63;94392.56;5048106;28;20219;-81
2021/08/26 04:12:09;;;;;;;5.88;4.13;;;15.80;70.50;;;15.62;55.92;94390.38;5034778;28;20245;-82
2021/08/26 04:14:37;;;;;;;7.75;4.60;;;15.80;70.60;;;15.64;56.10;94398.91;5015541;28;20199;-81
2021/08/26 04:17:05;;;;;;;5.75;4.22;;;15.90;70.60;;;15.63;56.11;94399.94;5034759;28;20296;-82
2021/08/26 04:19:32;;;;;;;5.07;3.85;;;15.90;70.70;;;15.61;55.91;94396.72;5052412;28;20199;-81
2021/08/26 04:22:00;;;;;;;5.43;3.95;;;15.80;70.70;;;15.59;55.83;94394.31;5052562;28;20269;-81
2021/08/26 04:24:27;;;;;;;6.80;4.00;;;15.80;70.70;;;15.61;56.29;94402.00;5046910;28;20645;-82
2021/08/26 04:26:54;;;;;;;7.15;4.82;;;15.80;70.70;;;15.59;55.99;94393.53;5054087;28;20254;-81
2021/08/26 04:29:24;;;;;;;8.55;4.65;;;15.80;70.80;;;15.59;55.94;94391.66;5036268;28;20595;-82
2021/08/26 04:31:51;;;;;;;7.22;4.40;;;15.70;70.70;;;15.59;56.22;94391.66;5035890;28;20314;-81
2021/08/26 04:34:18;;;;;;;7.78;4.28;;;15.80;70.70;;;15.60;56.09;94395.09;5018295;28;20196;-81
2021/08/26 04:36:46;;;;;;;8.30;4.57;;;15.80;70.90;;;15.60;56.26;94390.63;5032695;28;20681;-81
2021/08/26 04:39:13;;;;;;;6.70;4.53;;;15.80;71.00;;;15.62;56.45;94390.38;5043121;28;20645;-81
2021/08/26 04:41:40;;;;;;;6.03;4.03;;;15.80;71.00;;;15.63;56.26;94384.06;5035666;28;20688;-81
2021/08/26 04:44:08;;;;;;;5.78;4.10;;;15.80;71.10;;;15.63;56.05;94386.72;5036762;28;20188;-81
2021/08/26 04:46:38;;;;;;;6.45;4.03;;;15.80;71.10;;;15.63;56.31;94389.34;5016144;28;20227;-81
2021/08/26 04:49:05;;;;;;;6.45;4.07;;;15.80;71.10;;;15.63;56.25;94390.16;5015739;28;20211;-80
2021/08/26 04:51:32;;;;;;;6.13;3.97;;;15.80;72.10;;;15.59;56.07;94378.44;5020530;28;20679;-80
2021/08/26 04:53:59;;;;;;;7.07;4.60;;;15.80;71.00;;;15.63;55.85;94382.22;5030642;28;20192;-80
2021/08/26 04:56:26;;;;;;;6.22;4.15;;;15.80;71.10;;;15.64;56.34;94396.25;5043384;28;20657;-79
2021/08/26 04:58:53;;;;;;;6.00;3.83;;;15.80;71.10;;;15.63;56.55;94398.09;5017057;28;20194;-80
2021/08/26 05:01:21;;;;;;;6.28;4.03;;;15.80;72.10;;;15.65;56.39;94409.22;5023896;28;20765;-81
2021/08/26 05:03:48;;;;;;;6.80;4.40;;;15.80;71.20;;;15.61;56.47;94400.19;5040389;28;20199;-82
2021/08/26 05:06:15;;;;;;;8.32;5.10;;;15.80;71.30;;;15.64;57.01;94404.19;5038447;28;20647;-83
2021/08/26 05:08:42;;;;;;;7.55;4.70;;;15.80;71.30;;;15.63;56.63;94386.72;5040912;28;20193;-82
2021/08/26 05:11:20;;;;;;;7.55;4.93;;;15.80;71.50;;;15.63;57.04;94384.88;5016359;28;20212;-82
2021/08/26 05:13:48;;;;;;;7.35;5.00;;;15.80;71.60;;;15.61;56.56;94386.97;5026926;28;20199;-82
2021/08/26 05:16:15;;;;;;;7.65;5.03;;;15.90;71.70;;;15.60;57.23;94381.88;5031087;28;20209;-82
2021/08/26 05:18:43;;;;;;;9.23;5.43;;;15.80;71.70;;;15.59;56.95;94386.38;5017166;28;20265;-82
2021/08/26 05:21:10;;;;;;;7.00;4.65;;;15.80;71.70;;;15.61;57.03;94380.84;5024440;28;20214;-83
2021/08/26 05:23:37;;;;;;;7.30;4.65;;;15.80;71.80;;;15.60;57.32;94382.72;5023828;28;20223;-82
2021/08/26 05:26:04;;;;;;;7.68;4.78;;;15.80;71.80;;;15.63;56.97;94379.56;5009952;28;20301;-82
2021/08/26 05:28:31;;;;;;;7.70;4.78;;;15.80;71.90;;;15.64;57.08;94378.53;5015791;28;20258;-82
2021/08/26 05:30:59;;;;;;;6.85;4.57;;;15.80;72.00;;;15.66;56.81;94386.22;5020622;28;20223;-79
2021/08/26 05:33:26;;;;;;;8.23;5.18;;;15.80;72.00;;;15.63;56.90;94376.16;5022566;28;20242;-81
2021/08/26 05:35:53;;;;;;;8.25;4.82;;;15.80;72.00;;;15.69;57.05;94378.63;5032259;28;20225;-80
2021/08/26 05:38:20;;;;;;;7.68;4.53;;;15.90;72.20;;;15.74;57.43;94372.63;5030664;28;20199;-79
2021/08/26 05:40:48;;;;;;;6.72;4.50;;;15.90;72.40;;;15.79;57.08;94372.72;5042291;28;20554;-79
2021/08/26 05:43:15;;;;;;;6.55;4.43;;;15.90;72.40;;;15.83;57.43;94367.78;5023689;28;20200;-79
2021/08/26 05:45:42;;;;;;;7.63;4.72;;;15.90;72.50;;;15.86;57.55;94358.59;5041503;28;20207;-80
2021/08/26 05:48:09;;;;;;;6.80;4.90;;;15.90;72.30;;;15.89;57.19;94361.53;5042742;28;20231;-79
2021/08/26 05:50:37;;;;;;;7.53;4.93;;;15.90;72.30;;;15.91;57.10;94361.31;5039703;28;20211;-80
2021/08/26 05:53:04;;;;;;;8.82;5.10;;;16.00;72.30;;;15.91;57.05;94348.09;5029617;28;20671;-79
2021/08/26 05:55:31;;;;;;;7.90;5.10;;;16.00;72.30;;;15.93;57.11;94351.28;5009446;28;20217;-79
2021/08/26 05:57:58;;;;;;;7.10;4.72;;;16.00;72.40;;;15.94;57.40;94350.25;5005054;28;20223;-80
2021/08/26 06:00:27;;;;;;;5.43;4.22;;;16.00;72.30;;;16.00;57.04;94355.41;5038422;28;20299;-79
2021/08/26 06:02:54;;;;;;;6.88;4.72;;;16.10;72.40;;;16.03;57.33;94350.66;5007445;28;20665;-79
2021/08/26 06:05:22;;;;;;;9.93;5.97;;;16.10;72.50;;;16.11;57.61;94360.84;5031450;28;20222;-80
2021/08/26 06:07:51;;;;;;;10.40;5.43;;;16.10;72.50;;;16.14;57.36;94350.59;5039604;28;20558;-79
2021/08/26 06:10:19;;;;;;;9.35;5.05;;;16.20;72.50;;;16.19;57.40;94354.38;5031371;28;20211;-79
2021/08/26 06:12:47;;;;;;;7.25;4.57;;;16.20;72.50;;;16.21;56.92;94360.22;5030306;28;20196;-79
2021/08/26 06:15:16;;;;;;;11.60;5.07;;;16.30;72.30;;;16.23;57.16;94345.69;5031612;28;20226;-79
2021/08/26 06:17:42;;;;;;;8.48;4.97;;;16.30;72.30;;;16.23;57.08;94342.25;5018859;28;20291;-80
2021/08/26 06:20:13;;;;;;;6.95;5.20;;;16.30;72.30;;;16.30;57.34;94345.53;5037572;28;20216;-79
2021/08/26 06:22:43;;;;;;;8.48;5.45;;;16.30;72.40;;;16.35;56.95;94345.63;5024317;28;20289;-80
2021/08/26 06:25:12;;;;;;;7.22;5.15;;;16.40;73.40;;;16.44;57.24;94340.72;5012371;28;20668;-80
2021/08/26 06:27:41;;;;;;;6.88;4.72;;;16.40;72.60;;;16.54;57.08;94334.75;5020089;28;20196;-79
2021/08/26 06:30:11;;;;;;;8.35;5.30;;;16.40;72.70;;;16.62;57.47;94337.81;5033335;28;20215;-79
2021/08/26 06:32:39;;;;;;;8.85;5.25;;;16.50;72.80;;;16.69;57.31;94337.63;5018932;28;20311;-79
2021/08/26 06:35:06;;;;;;;8.45;5.20;;;16.70;72.80;;;16.74;57.25;94327.09;5026959;28;20262;-79
2021/08/26 06:37:34;;;;;;;8.38;5.30;;;16.60;72.60;;;16.77;57.08;94339.03;5013909;28;20685;-80
2021/08/26 06:40:01;;;;;;;7.50;4.97;;;16.70;72.60;;;16.79;56.79;94331.66;5025320;28;20227;-79
2021/08/26 06:42:28;;;;;;;7.43;5.10;;;16.80;72.50;;;16.81;56.73;94329.59;5033268;28;20235;-80
2021/08/26 06:44:55;;;;;;;8.90;5.40;;;16.80;72.40;;;16.83;56.66;94316.88;5043193;28;20751;-79
2021/08/26 06:47:23;;;;;;;8.75;5.25;;;16.80;72.30;;;16.84;56.76;94310.53;5027075;28;20199;-79
2021/08/26 06:49:50;;;;;;;9.07;5.50;;;16.80;72.30;;;16.89;56.83;94313.25;5030926;28;20184;-79
2021/08/26 06:52:17;;;;;;;8.63;5.25;;;16.90;72.60;;;16.92;57.15;94315.44;5026775;28;20223;-79
2021/08/26 06:54:44;;;;;;;7.15;5.55;;;16.90;72.50;;;16.94;56.73;94313.38;5010436;28;20226;-80
2021/08/26 06:57:11;;;;;;;8.95;5.90;;;16.90;72.30;;;16.92;56.67;94310.16;5028183;28;20540;-79
2021/08/26 06:59:38;;;;;;;8.63;5.85;;;17.00;72.30;;;16.90;57.10;94306.13;5043528;28;20192;-80
2021/08/26 07:02:06;;;;;;;9.43;5.97;;;17.00;72.20;;;16.89;56.96;94310.59;5026449;28;20314;-79
2021/08/26 07:04:34;;;;;;;7.75;5.47;;;17.00;72.20;;;16.94;57.19;94299.31;5041871;28;20600;-79
2021/08/26 07:07:01;;;;;;;9.95;5.82;;;17.00;72.20;;;16.96;57.10;94286.63;5042246;28;20215;-80
2021/08/26 07:09:28;;;;;;;7.65;5.32;;;17.00;72.30;;;17.02;57.03;94287.50;5018728;28;20231;-80
2021/08/26 07:11:55;;;;;;;10.88;5.50;;;17.00;72.30;;;17.10;56.96;94279.06;5018542;28;20313;-80
2021/08/26 07:14:22;;;;;;;9.38;5.53;;;17.00;72.40;;;17.19;56.75;94276.81;5023449;28;20196;-80
2021/08/26 07:16:49;;;;;;;7.28;5.00;;;17.10;72.70;;;17.28;57.21;94262.88;5040589;28;20258;-79
2021/08/26 07:19:17;;;;;;;7.85;5.05;;;17.20;72.80;;;17.38;56.78;94267.47;5017334;28;20199;-79
2021/08/26 07:21:44;;;;;;;9.88;5.20;;;17.20;72.90;;;17.59;56.79;94268.44;5040003;28;20322;-79
2021/08/26 07:24:11;;;;;;;7.22;5.35;;;17.30;72.80;;;17.72;56.86;94258.47;5041884;28;20274;-79
2021/08/26 07:26:39;;;;;;;7.68;5.43;;;17.40;72.90;;;17.90;56.71;94266.03;5039578;28;20299;-79
2021/08/26 07:29:06;;;;;;;9.38;6.07;;;17.60;73.00;;;18.02;56.34;94273.88;5029105;28;20290;-79
2021/08/26 07:31:33;;;;;;;8.93;5.90;;;17.60;72.70;;;18.11;56.24;94266.22;5040965;28;20583;-79
2021/08/26 07:34:01;;;;;;;6.38;4.65;;;17.90;72.80;;;18.24;56.02;94260.47;5032878;28;20195;-80
2021/08/26 07:36:28;;;;;;;7.30;5.10;;;18.00;72.80;;;18.34;56.48;94259.75;5017185;28;20237;-79
2021/08/26 07:38:55;;;;;;;8.38;5.63;;;18.00;72.50;;;18.46;56.02;94259.56;5026439;28;20203;-79
2021/08/26 07:41:23;;;;;;;8.55;6.07;;;18.20;72.60;;;18.56;55.69;94253.50;5033953;28;20247;-79
2021/08/26 07:43:50;;;;;;;9.13;6.25;;;18.20;72.20;;;18.64;55.61;94257.50;5033012;28;20729;-79
2021/08/26 07:46:18;;;;;;;7.22;5.22;;;18.30;72.80;;;18.67;55.12;94247.16;5015729;28;20318;-79
2021/08/26 07:48:45;;;;;;;8.07;5.45;;;18.40;71.80;;;18.65;55.60;94251.94;5033837;28;20227;-80
2021/08/26 07:51:12;;;;;;;9.90;5.80;;;18.50;71.60;;;18.65;55.24;94254.59;5016767;28;20223;-78
2021/08/26 07:53:39;;;;;;;8.18;5.63;;;18.50;71.40;;;18.65;55.33;94256.44;5033103;28;20736;-79
2021/08/26 07:56:06;;;;;;;9.52;6.22;;;18.60;71.50;;;18.65;55.20;94256.44;5050059;28;20219;-78
2021/08/26 07:58:33;;;;;;;9.00;5.80;;;18.70;71.40;;;18.66;55.13;94255.41;5017499;28;20200;-79
2021/08/26 08:01:01;;;;;;;8.45;5.38;;;18.60;71.30;;;18.68;55.21;94253.28;5034805;28;20223;-78
2021/08/26 08:03:32;;;;;;;10.20;6.43;;;18.60;71.40;;;18.67;55.40;94247.16;4992901;28;1152569;-78
2021/08/26 08:06:05;;;;;;;9.65;6.05;;;18.70;71.30;;;18.75;55.03;94248.53;5020210;28;20313;-79
2021/08/26 08:08:32;;;;;;;7.85;5.55;;;18.70;71.40;;;18.86;55.33;94239.53;5036688;28;20227;-78
2021/08/26 08:11:00;;;;;;;8.13;5.82;;;18.80;71.60;;;18.95;55.09;94245.19;5020059;28;20219;-78
2021/08/26 08:13:31;;;;;;;8.90;6.20;;;18.80;71.60;;;18.99;54.99;94250.78;5036742;28;20204;-78
2021/08/26 08:16:00;;;;;;;7.25;5.65;;;18.90;71.30;;;18.97;54.66;94247.56;5020225;28;20308;-78
2021/08/26 08:18:28;;;;;;;7.97;6.15;;;18.90;71.00;;;18.96;54.74;94244.13;5036882;28;20191;-78
2021/08/26 08:20:55;;;;;;;8.27;5.97;;;18.90;70.80;;;18.91;54.73;94245.91;5035451;28;20231;-78
2021/08/26 08:23:22;;;;;;;8.65;5.28;;;18.90;70.50;;;18.85;54.51;94253.88;5048606;28;20235;-78
2021/08/26 08:25:50;;;;;;;8.90;5.90;;;19.00;70.60;;;18.83;54.77;94257.84;5065563;28;20223;-79
2021/08/26 08:28:18;;;;;;;11.27;5.95;;;18.90;70.50;;;18.77;54.35;94272.97;5049168;28;20204;-79
2021/08/26 08:30:45;;;;;;;9.70;6.20;;;18.90;70.40;;;18.71;55.00;94258.88;5048878;28;20216;-79
2021/08/26 08:33:16;;;;;;;8.70;6.32;;;18.80;70.40;;;18.67;55.10;94272.94;5051116;28;20286;-79
2021/08/26 08:35:43;;;;;;;9.85;6.28;;;18.90;70.70;;;18.53;55.13;94269.97;5035795;28;20211;-79
2021/08/26 08:38:11;;;;;;;10.60;6.65;;;18.80;70.50;;;18.43;55.24;94270.69;5019462;28;20294;-79
2021/08/26 08:40:40;;;;;;;10.25;6.20;;;18.70;70.60;;;18.30;55.35;94268.50;5035686;28;20211;-79
2021/08/26 08:43:07;;;;;;;8.52;5.97;;;18.60;70.30;;;18.22;55.14;94275.06;5035781;28;20219;-79
2021/08/26 08:45:35;;;;;;;9.85;6.82;;;18.50;70.40;;;18.13;55.35;94280.06;5035503;28;20238;-79
2021/08/26 08:48:08;;;;;;;9.00;6.45;;;18.50;70.50;;;18.08;55.72;94277.38;5035682;28;20226;-78
2021/08/26 08:50:35;;;;;;;9.15;5.88;;;18.40;70.70;;;18.05;55.52;94281.34;5019746;28;20235;-79
2021/08/26 08:53:03;;;;;;;10.27;6.63;;;18.30;70.70;;;18.02;55.82;94281.03;5035506;28;20560;-78
2021/08/26 08:55:30;;;;;;;11.38;7.00;;;18.20;70.70;;;17.98;55.65;94286.06;5018881;28;20724;-78
2021/08/26 08:57:57;;;;;;;9.52;6.82;;;18.20;70.80;;;17.91;55.63;94286.22;5018866;28;20586;-79
2021/08/26 09:00:25;;;;;;;13.23;7.40;;;18.20;71.10;;;17.84;56.66;94295.44;5018845;28;20223;-78
2021/08/26 09:02:52;;;;;;;12.25;7.97;;;18.10;71.30;;;17.59;57.66;94287.00;5051689;28;20738;-78
2021/08/26 09:05:22;;;;;;;10.75;7.32;;;18.10;71.60;;;17.41;57.28;94277.56;5018531;28;20231;-78
2021/08/26 09:07:49;;;;;;;10.50;7.25;;;17.90;71.40;;;17.26;57.20;94283.50;5035555;28;20278;-79
2021/08/26 09:10:18;;;;;;;10.43;7.38;;;17.80;71.60;;;17.15;58.35;94302.19;5018904;28;20230;-79
2021/08/26 09:12:50;;;;;;;12.38;8.18;;;17.70;71.80;;;16.99;58.73;94296.72;5035258;28;20205;-79
2021/08/26 09:15:26;;;;;;;11.32;8.32;;;17.60;72.30;;;16.91;58.94;94308.50;5034708;28;20207;-79
2021/08/26 09:18:18;;;;;;;12.90;7.82;;;17.40;72.60;;;16.84;59.06;94304.47;5046775;28;20202;-79
2021/08/26 09:21:07;;;;;;;11.32;7.63;;;17.30;72.80;;;16.82;59.22;94299.41;5015207;28;20632;-80
2021/08/26 09:23:54;;;;;;;11.38;8.32;;;17.20;73.20;;;16.84;58.93;94305.25;5031538;28;20227;-79
2021/08/26 09:26:24;;;;;;;10.82;7.97;;;17.20;73.40;;;16.87;59.11;94296.81;5038808;28;20561;-79
2021/08/26 09:28:53;;;;;;;11.27;7.43;;;17.10;73.60;;;16.94;59.30;94292.16;5031400;28;20701;-80
2021/08/26 09:31:25;;;;;;;12.95;7.95;;;17.10;74.00;;;17.01;59.02;94296.47;5031318;28;20254;-80
2021/08/26 09:34:04;;;;;;;11.32;7.90;;;17.10;74.30;;;17.06;59.77;94301.84;5021949;28;20200;-78
2021/08/26 09:36:48;;;;;;;13.10;8.38;;;17.10;74.20;;;17.09;58.81;94294.19;5042452;28;20302;-80
2021/08/26 09:39:19;;;;;;;12.80;8.85;;;17.10;74.50;;;17.17;59.38;94300.88;5031361;28;20215;-80
2021/08/26 09:41:54;;;;;;;13.15;8.80;;;17.20;74.50;;;17.23;59.22;94294.59;5015747;28;20224;-80
2021/08/26 09:44:26;;;;;;;11.57;8.43;;;17.20;75.10;;;17.32;59.67;94283.56;5048675;28;20620;-80
2021/08/26 09:46:58;;;;;;;13.68;9.65;;;17.30;75.00;;;17.37;59.31;94295.03;5052175;28;20290;-80
2021/08/26 09:49:28;;;;;;;11.30;8.77;;;17.30;74.40;;;17.34;59.23;94292.84;5037587;28;20247;-80
2021/08/26 09:52:16;;;;;;;14.68;9.50;;;17.30;74.30;;;17.23;59.43;94299.91;5022911;28;20231;-81
2021/08/26 09:54:49;;;;;;;12.35;9.40;;;17.40;74.30;;;17.13;59.57;94299.78;5031199;28;20222;-79
2021/08/26 09:57:32;;;;;;;12.88;9.35;;;17.30;74.00;;;17.01;59.82;94305.22;5016957;28;20274;-80
2021/08/26 10:00:01;;;;;;;12.35;9.02;;;17.30;74.40;;;16.93;60.31;94311.75;5018344;28;20748;-79
2021/08/26 10:02:48;;;;;;;13.93;9.70;;;17.20;74.00;;;16.79;59.87;94303.31;5031221;28;20645;-79
2021/08/26 10:05:16;;;;;;;14.63;10.43;;;17.20;74.70;;;16.68;60.47;94314.84;5010874;28;20227;-79
2021/08/26 10:07:46;;;;;;;15.00;11.02;;;17.10;74.60;;;16.55;61.64;94307.25;5014631;28;20203;-80
2021/08/26 10:10:13;;;;;;;12.40;9.35;;;17.00;74.90;;;16.44;61.42;94299.19;5031031;28;20277;-80
2021/08/26 10:12:40;;;;;;;12.48;9.43;;;16.90;75.00;;;16.41;61.72;94306.81;5031005;28;20192;-80
2021/08/26 10:15:10;;;;;;;15.55;9.90;;;16.80;75.20;;;16.33;61.27;94300.88;5030726;28;20223;-78
2021/08/26 10:17:38;;;;;;;12.43;8.88;;;16.80;75.60;;;16.33;61.53;94300.06;5014591;28;20196;-79
2021/08/26 10:20:07;;;;;;;14.73;10.30;;;16.80;75.50;;;16.33;61.66;94305.34;5046866;28;20240;-79
2021/08/26 10:22:34;;;;;;;14.05;10.55;;;16.70;75.50;;;16.29;62.51;94299.75;4998123;28;20235;-79
2021/08/26 10:25:03;;;;;;;15.77;10.77;;;16.70;75.80;;;16.31;62.71;94300.31;5014506;28;20231;-79
2021/08/26 10:27:32;;;;;;;12.52;9.88;;;16.70;76.20;;;16.32;62.05;94293.97;5014469;28;20196;-79
2021/08/26 10:30:00;;;;;;;14.70;10.48;;;16.60;76.50;;;16.32;62.48;94301.13;5045329;28;20296;-79
2021/08/26 10:32:27;;;;;;;13.40;9.80;;;16.60;76.50;;;16.32;62.67;94301.13;5048653;28;20194;-79